Time;durP1;ratioP1;P1;durP2;ratioP2;P2;SDS_P1;SDS_P2;PMS_P1;PMS_P2;Temp;Humidity;BMP_temperature;BMP_pressure;BME280_temperature;BME280_humidity;BME280_pressure;Samples;Min_cycle;Max_cycle;Signal;HPM_P1;HPM_P2
2022/06/17 00:01:41;;;;;;;7.78;5.68;;;;;;;15.27;87.19;96070.16;4990025;28;20046;-78
2022/06/17 00:04:07;;;;;;;8.63;5.78;;;;;;;15.19;88.08;96079.50;4991178;28;20039;-77
2022/06/17 00:06:38;;;;;;;10.10;5.57;;;;;;;15.13;88.87;96079.84;4990467;28;20420;-76
2022/06/17 00:09:06;;;;;;;9.43;5.72;;;;;;;15.13;89.24;96074.53;4989972;28;20046;-77
2022/06/17 00:11:36;;;;;;;10.23;6.10;;;;;;;14.98;89.78;96073.66;4991994;28;20137;-77
2022/06/17 00:14:05;;;;;;;11.88;6.22;;;;;;;14.89;90.61;96065.53;4990991;28;20050;-77
2022/06/17 00:16:31;;;;;;;10.98;6.10;;;;;;;14.82;90.65;96070.41;4989774;28;20054;-77
2022/06/17 00:18:56;;;;;;;9.93;6.18;;;;;;;14.89;90.38;96070.06;4989842;28;20607;-77
2022/06/17 00:21:27;;;;;;;9.38;5.90;;;;;;;14.92;89.90;96064.19;4990569;28;20571;-77
2022/06/17 00:23:53;;;;;;;11.65;6.32;;;;;;;14.78;91.08;96053.47;4989002;28;20138;-76
2022/06/17 00:26:19;;;;;;;9.27;6.13;;;;;;;14.66;91.25;96043.28;4989255;28;20034;-76
2022/06/17 00:28:45;;;;;;;12.65;6.18;;;;;;;14.60;91.85;96047.03;4988649;28;20046;-76
2022/06/17 00:31:11;;;;;;;9.95;5.80;;;;;;;14.66;90.94;96042.50;5006450;28;20054;-76
2022/06/17 00:33:36;;;;;;;9.85;6.30;;;;;;;14.61;92.14;96053.94;4991958;28;20050;-76
2022/06/17 00:36:03;;;;;;;7.55;6.13;;;;;;;14.51;92.51;96059.31;4992127;28;20052;-77
2022/06/17 00:38:32;;;;;;;9.38;6.03;;;;;;;14.44;92.18;96066.78;4987365;28;20043;-76
2022/06/17 00:41:10;;;;;;;7.65;5.55;;;;;;;14.45;92.16;96060.44;4992700;28;20177;-77
2022/06/17 00:43:37;;;;;;;13.93;5.90;;;;;;;14.36;92.42;96058.38;4991037;28;20050;-76
2022/06/17 00:46:13;;;;;;;6.90;5.82;;;;;;;14.33;92.87;96066.88;4991039;28;20032;-76
2022/06/17 00:48:46;;;;;;;10.65;6.20;;;;;;;14.35;92.76;96056.81;4992171;28;20046;-76
2022/06/17 00:51:22;;;;;;;9.88;6.50;;;;;;;14.25;92.80;96051.63;4991467;28;20042;-76
2022/06/17 00:53:56;;;;;;;8.18;6.20;;;;;;;14.16;93.73;96063.88;4990412;28;20062;-76
2022/06/17 00:56:29;;;;;;;8.10;6.05;;;;;;;14.10;94.52;96075.59;4991637;28;20133;-76
2022/06/17 00:59:06;;;;;;;9.68;6.22;;;;;;;14.18;93.61;96067.06;4990981;28;20042;-76
2022/06/17 01:01:47;;;;;;;10.13;6.18;;;;;;;14.18;94.16;96064.41;4993608;28;20053;-76
2022/06/17 01:04:18;;;;;;;8.82;6.07;;;;;;;14.15;94.63;96072.88;4984917;28;20049;-76
2022/06/17 01:06:49;;;;;;;12.40;6.78;;;;;;;14.09;95.17;96068.72;4990307;28;20038;-76
2022/06/17 01:12:14;;;;;;;10.00;6.75;;;;;;;14.08;96.20;96067.94;4991643;28;20042;-76
2022/06/17 01:14:42;;;;;;;18.27;7.25;;;;;;;14.02;96.27;96080.41;4989401;28;20042;-76
2022/06/17 01:17:10;;;;;;;9.48;6.50;;;;;;;14.00;97.02;96082.53;4990520;28;20042;-76
2022/06/17 01:19:45;;;;;;;10.00;6.63;;;;;;;13.90;97.34;96077.31;4990501;28;20049;-76
2022/06/17 01:22:26;;;;;;;11.38;6.63;;;;;;;13.88;97.84;96087.41;4986503;28;20170;-76
2022/06/17 01:25:02;;;;;;;10.48;6.65;;;;;;;13.84;97.97;96094.31;4989327;28;20057;-76
2022/06/17 01:27:42;;;;;;;9.10;6.65;;;;;;;13.98;97.51;96100.53;4991556;28;20041;-76
2022/06/17 01:30:15;;;;;;;11.05;7.05;;;;;;;14.01;96.64;96110.56;4988500;28;20035;-76
2022/06/17 01:33:00;;;;;;;9.53;6.23;;;;;;;13.92;96.94;96112.25;4990915;28;20089;-76
2022/06/17 01:35:31;;;;;;;13.32;7.07;;;;;;;13.90;98.17;96124.94;4989635;28;20117;-76
2022/06/17 01:37:57;;;;;;;8.77;6.80;;;;;;;13.80;98.58;96111.78;4991627;28;20043;-76
2022/06/17 01:40:24;;;;;;;16.58;7.38;;;;;;;13.78;98.97;96106.00;4990405;28;20050;-76
2022/06/17 01:42:50;;;;;;;15.40;7.55;;;;;;;13.68;100.00;96102.34;4988118;28;20176;-76
2022/06/17 01:45:16;;;;;;;11.27;7.78;;;;;;;13.61;99.67;96101.84;4990163;28;20773;-75
2022/06/17 01:47:44;;;;;;;13.05;7.60;;;;;;;13.57;100.00;96100.03;4990879;28;20050;-76
2022/06/17 01:50:15;;;;;;;13.18;7.28;;;;;;;13.54;100.00;96111.94;4990361;28;20069;-76
2022/06/17 01:52:47;;;;;;;11.63;7.88;;;;;;;13.55;100.00;96118.00;4979750;28;20042;-77
2022/06/17 01:55:22;;;;;;;13.55;7.65;;;;;;;13.51;100.00;96117.78;4991316;28;20038;-77
2022/06/17 01:58:01;;;;;;;14.13;7.90;;;;;;;13.52;100.00;96122.78;4980408;28;20050;-76
2022/06/17 02:00:29;;;;;;;10.60;7.72;;;;;;;13.47;100.00;96109.59;4989722;28;20520;-76
2022/06/17 02:03:23;;;;;;;13.07;8.40;;;;;;;13.50;100.00;96105.59;4990614;28;20515;-76
2022/06/17 02:05:55;;;;;;;14.55;8.60;;;;;;;13.44;100.00;96096.13;4985517;28;20089;-76
2022/06/17 02:08:21;;;;;;;13.20;8.80;;;;;;;13.37;100.00;96100.94;4990993;28;20046;-75
2022/06/17 02:10:49;;;;;;;13.55;8.68;;;;;;;13.30;100.00;96096.72;4990564;28;20046;-75
2022/06/17 02:13:16;;;;;;;12.15;8.48;;;;;;;13.26;100.00;96100.94;4989254;28;20062;-76
2022/06/17 02:15:44;;;;;;;19.33;9.00;;;;;;;13.18;100.00;96098.88;4990094;28;20487;-75
2022/06/17 02:18:14;;;;;;;14.52;9.35;;;;;;;13.15;100.00;96099.41;4989274;28;20035;-76
2022/06/17 02:20:40;;;;;;;12.82;8.85;;;;;;;13.12;100.00;96089.38;4988853;28;20117;-76
2022/06/17 02:23:06;;;;;;;12.88;8.73;;;;;;;13.10;100.00;96086.22;4987187;28;20046;-76
2022/06/17 02:25:37;;;;;;;13.63;8.85;;;;;;;13.09;100.00;96084.66;4989902;28;20065;-77
2022/06/17 02:28:05;;;;;;;18.58;8.63;;;;;;;13.09;100.00;96089.94;4991880;28;20049;-76
2022/06/17 02:30:31;;;;;;;12.98;8.45;;;;;;;13.02;100.00;96078.88;4988433;28;20046;-75
2022/06/17 02:33:00;;;;;;;13.68;9.13;;;;;;;12.93;100.00;96076.78;4990003;28;20117;-76
2022/06/17 02:35:56;;;;;;;15.52;8.27;;;;;;;12.86;100.00;96076.28;4976987;28;20054;-76
2022/06/17 02:38:27;;;;;;;15.13;8.45;;;;;;;12.81;100.00;96076.28;4986580;28;20062;-76
2022/06/17 02:40:58;;;;;;;24.75;8.48;;;;;;;12.76;100.00;96076.31;4991070;28;20092;-76
2022/06/17 02:43:27;;;;;;;12.80;8.43;;;;;;;12.57;100.00;96074.25;4989867;28;20046;-77
2022/06/17 02:45:57;;;;;;;16.58;8.52;;;;;;;12.65;100.00;96070.25;4991026;28;20077;-77
2022/06/17 02:48:26;;;;;;;13.65;8.02;;;;;;;12.58;100.00;96070.53;4988223;28;20043;-76
2022/06/17 02:50:56;;;;;;;14.30;8.95;;;;;;;12.55;100.00;96065.00;4985107;28;20042;-75
2022/06/17 02:53:33;;;;;;;13.75;8.38;;;;;;;12.48;100.00;96070.56;4983821;28;20043;-78
2022/06/17 02:56:02;;;;;;;12.50;8.40;;;;;;;12.44;100.00;96064.22;4990238;28;20046;-75
2022/06/17 02:58:52;;;;;;;12.73;8.13;;;;;;;12.41;100.00;96064.75;4988344;28;20047;-75
2022/06/17 03:01:20;;;;;;;14.05;8.73;;;;;;;12.36;100.00;96062.16;4985386;28;20093;-75
2022/06/17 03:03:47;;;;;;;13.93;8.18;;;;;;;12.30;100.00;96054.22;4988763;28;20042;-75
2022/06/17 03:06:31;;;;;;;12.43;8.45;;;;;;;12.23;100.00;96053.72;4988619;28;20050;-75
2022/06/17 03:09:00;;;;;;;14.70;8.77;;;;;;;12.26;100.00;96053.16;4985977;28;20069;-75
2022/06/17 03:11:26;;;;;;;11.98;7.85;;;;;;;12.21;100.00;96040.00;4988741;28;20050;-76
2022/06/17 03:13:56;;;;;;;12.13;7.90;;;;;;;12.17;100.00;96049.50;4989021;28;20432;-76
2022/06/17 03:16:23;;;;;;;10.70;8.00;;;;;;;12.12;100.00;96047.66;4984823;28;20055;-76
2022/06/17 03:18:50;;;;;;;13.73;8.68;;;;;;;12.13;100.00;96059.00;5002794;28;20476;-75
2022/06/17 03:21:23;;;;;;;12.48;7.88;;;;;;;12.19;100.00;96063.22;4988265;28;20404;-76
2022/06/17 03:24:11;;;;;;;10.77;7.38;;;;;;;12.19;100.00;96076.41;4987853;28;20038;-76
2022/06/17 03:27:01;;;;;;;11.48;8.00;;;;;;;12.17;100.00;96070.63;4988978;28;20350;-75
2022/06/17 03:29:28;;;;;;;12.80;7.85;;;;;;;12.13;100.00;96074.84;4982854;28;20042;-76
2022/06/17 03:32:00;;;;;;;13.32;7.70;;;;;;;12.19;100.00;96089.59;4989051;28;20046;-76
2022/06/17 03:34:45;;;;;;;11.30;7.75;;;;;;;12.17;100.00;96094.34;4987431;28;20046;-76
2022/06/17 03:37:11;;;;;;;;;;;;;;;12.08;100.00;96088.00;4987650;28;20046;-76
2022/06/17 03:39:40;;;;;;;14.50;8.70;;;;;;;12.04;100.00;96086.94;4981504;28;19925;-76
2022/06/17 03:42:11;;;;;;;13.27;8.98;;;;;;;12.07;100.00;96095.16;4988866;28;20042;-76
2022/06/17 03:44:43;;;;;;;18.05;9.07;;;;;;;12.02;100.00;96094.34;4980066;28;20045;-76
2022/06/17 03:47:28;;;;;;;12.35;7.88;;;;;;;12.09;100.00;96108.84;4989156;28;20038;-76
2022/06/17 03:50:05;;;;;;;14.07;8.20;;;;;;;12.14;100.00;96113.34;4988950;28;20042;-77
2022/06/17 03:52:42;;;;;;;12.77;8.70;;;;;;;12.15;100.00;96120.19;4992283;28;20050;-77
2022/06/17 03:55:13;;;;;;;11.93;8.50;;;;;;;12.14;100.00;96118.63;4994082;28;20044;-77
2022/06/17 03:57:41;;;;;;;17.75;8.68;;;;;;;12.15;100.00;96114.91;4994438;28;20053;-77
2022/06/17 04:00:14;;;;;;;12.43;8.50;;;;;;;12.18;100.00;96124.94;4995760;28;20046;-76
2022/06/17 04:02:40;;;;;;;16.35;8.93;;;;;;;12.38;100.00;96123.38;4993804;28;20046;-76
2022/06/17 04:05:09;;;;;;;16.73;9.27;;;;;;;12.51;100.00;96130.72;4996824;28;20050;-77
2022/06/17 04:07:34;;;;;;;14.27;9.13;;;;;;;12.57;100.00;96127.06;4999490;28;20046;-76
2022/06/17 04:10:00;;;;;;;11.90;8.02;;;;;;;12.72;100.00;96128.09;4996736;28;20046;-77
2022/06/17 04:12:28;;;;;;;22.90;8.73;;;;;;;12.77;100.00;96125.41;4994731;28;20046;-76
2022/06/17 04:15:13;;;;;;;13.70;8.43;;;;;;;12.86;100.00;96129.09;4990459;28;20043;-76
2022/06/17 04:17:44;;;;;;;14.25;8.93;;;;;;;12.93;100.00;96119.03;4993096;28;20042;-76
2022/06/17 04:20:27;;;;;;;12.95;9.02;;;;;;;13.09;100.00;96105.78;4990389;28;20452;-76
2022/06/17 04:22:56;;;;;;;16.23;9.17;;;;;;;13.17;100.00;96102.56;4992606;28;20046;-76
2022/06/17 04:25:32;;;;;;;15.15;9.48;;;;;;;13.30;100.00;96112.56;4992817;28;20751;-76
2022/06/17 04:28:03;;;;;;;18.42;9.90;;;;;;;13.38;100.00;96113.09;4984927;28;20101;-76
2022/06/17 04:30:32;;;;;;;16.65;9.82;;;;;;;13.54;100.00;96117.22;4991178;28;20058;-76
2022/06/17 04:33:09;;;;;;;15.05;9.07;;;;;;;13.62;100.00;96114.00;4995441;28;20463;-77
2022/06/17 04:35:35;;;;;;;14.77;9.30;;;;;;;13.78;99.55;96116.56;4991090;28;20046;-75
2022/06/17 04:38:01;;;;;;;15.63;9.85;;;;;;;13.94;99.11;96115.38;4991076;28;20050;-75
2022/06/17 04:40:40;;;;;;;16.88;9.63;;;;;;;14.12;97.83;96126.38;4991500;28;20085;-75
2022/06/17 04:43:33;;;;;;;18.45;9.65;;;;;;;14.28;97.18;96125.19;4991638;28;20045;-76
2022/06/17 04:46:15;;;;;;;18.50;9.15;;;;;;;14.43;96.41;96126.13;4991240;28;20046;-76
2022/06/17 04:48:41;;;;;;;17.92;9.93;;;;;;;14.50;94.77;96126.59;4995774;28;20377;-77
2022/06/17 04:51:09;;;;;;;17.08;9.63;;;;;;;14.56;94.82;96131.56;4995235;28;20034;-77
2022/06/17 04:53:35;;;;;;;14.98;9.18;;;;;;;14.71;92.78;96132.50;4993947;28;20105;-76
2022/06/17 04:56:03;;;;;;;22.92;9.70;;;;;;;14.92;91.03;96140.25;4992369;28;20437;-76
2022/06/17 04:58:30;;;;;;;15.27;9.23;;;;;;;14.92;91.29;96143.69;4991118;28;20043;-75
2022/06/17 05:00:56;;;;;;;15.82;9.45;;;;;;;15.16;90.03;96154.31;4993762;28;20045;-75
2022/06/17 05:03:26;;;;;;;14.55;8.90;;;;;;;15.17;87.81;96149.78;4992224;28;20050;-76
2022/06/17 05:05:52;;;;;;;13.60;9.20;;;;;;;15.22;86.31;96163.00;4987752;28;20129;-75
2022/06/17 05:08:26;;;;;;;15.43;8.55;;;;;;;15.35;83.36;96162.28;5010161;28;20046;-74
2022/06/17 05:10:58;;;;;;;16.20;9.18;;;;;;;15.32;82.35;96162.88;5016615;28;20032;-75
2022/06/17 05:13:33;;;;;;;12.75;8.02;;;;;;;15.40;81.73;96175.50;5017004;28;20042;-75
2022/06/17 05:15:58;;;;;;;14.48;8.32;;;;;;;15.45;79.64;96171.22;5016311;28;20018;-74
2022/06/17 05:18:24;;;;;;;12.15;8.45;;;;;;;15.51;78.73;96175.38;5013640;28;20041;-74
2022/06/17 05:20:50;;;;;;;16.35;8.85;;;;;;;15.59;77.68;96177.41;5016277;28;20050;-74
2022/06/17 05:23:16;;;;;;;16.83;8.18;;;;;;;15.63;80.23;96178.44;5017477;28;20046;-74
2022/06/17 05:25:45;;;;;;;12.93;8.10;;;;;;;15.86;79.21;96181.31;5017455;28;20045;-73
2022/06/17 05:28:13;;;;;;;17.38;8.38;;;;;;;15.93;79.14;96192.38;5016922;28;20050;-74
2022/06/17 05:30:42;;;;;;;14.25;8.38;;;;;;;15.96;79.74;96191.00;5016790;28;20072;-75
2022/06/17 05:33:12;;;;;;;16.05;8.25;;;;;;;16.16;78.85;96195.25;5017317;28;20038;-74
2022/06/17 05:35:37;;;;;;;16.23;8.80;;;;;;;16.24;74.17;96191.94;5010501;28;20043;-75
2022/06/17 05:38:03;;;;;;;14.93;8.02;;;;;;;16.27;75.27;96196.69;4990589;28;20051;-75
2022/06/17 05:40:28;;;;;;;15.73;8.00;;;;;;;16.32;77.11;96187.84;4990051;28;20045;-76
2022/06/17 05:42:54;;;;;;;12.73;7.88;;;;;;;16.49;75.41;96197.94;4987970;28;20049;-76
2022/06/17 05:45:23;;;;;;;15.60;7.78;;;;;;;16.70;72.39;96199.19;4990536;28;20699;-76
2022/06/17 05:47:49;;;;;;;11.95;7.57;;;;;;;16.72;72.58;96197.03;4990807;28;20038;-76
2022/06/17 05:50:16;;;;;;;12.68;6.97;;;;;;;16.72;71.88;96197.03;4989705;28;20100;-76
2022/06/17 05:52:56;;;;;;;15.82;8.00;;;;;;;16.79;69.61;96202.75;4990143;28;20050;-76
2022/06/17 05:55:24;;;;;;;16.58;7.03;;;;;;;16.83;70.68;96202.19;4988875;28;20042;-76
2022/06/17 05:57:49;;;;;;;17.15;8.05;;;;;;;16.89;70.29;96201.03;4990847;28;20046;-77
2022/06/17 06:00:16;;;;;;;12.55;7.18;;;;;;;16.98;69.02;96199.25;4994317;28;20038;-76
2022/06/17 06:02:42;;;;;;;13.23;7.35;;;;;;;17.01;68.41;96206.69;4988926;28;20047;-76
2022/06/17 06:05:11;;;;;;;17.52;7.40;;;;;;;17.04;69.12;96216.72;4988439;28;20043;-76
2022/06/17 06:07:37;;;;;;;12.32;7.20;;;;;;;17.12;69.18;96210.72;4985981;28;20048;-76
2022/06/17 06:10:03;;;;;;;14.23;7.13;;;;;;;17.24;69.41;96217.41;4989093;28;20038;-76
2022/06/17 06:15:13;;;;;;;15.40;7.60;;;;;;;17.33;69.50;96226.31;4990275;28;20042;-75
2022/06/17 06:17:38;;;;;;;16.52;7.82;;;;;;;17.37;70.12;96227.28;4991689;28;20046;-76
2022/06/17 06:20:05;;;;;;;10.63;6.82;;;;;;;17.45;70.97;96229.25;4991275;28;20058;-77
2022/06/17 06:22:30;;;;;;;13.15;7.20;;;;;;;17.49;68.28;96230.22;4990766;28;20046;-77
2022/06/17 06:24:55;;;;;;;16.25;7.80;;;;;;;17.54;66.27;96232.03;4991040;28;20042;-77
2022/06/17 06:27:21;;;;;;;16.60;8.10;;;;;;;17.66;67.12;96234.19;4991664;28;20050;-76
2022/06/17 06:29:46;;;;;;;14.05;8.07;;;;;;;17.71;66.16;96242.06;4989348;28;20065;-76
2022/06/17 06:32:12;;;;;;;11.18;7.25;;;;;;;17.67;65.50;96241.09;4988997;28;20044;-76
2022/06/17 06:34:37;;;;;;;12.60;6.95;;;;;;;17.68;67.47;96237.34;4990190;28;20051;-76
2022/06/17 06:37:03;;;;;;;19.30;7.63;;;;;;;17.94;64.83;96250.16;4989770;28;20112;-75
2022/06/17 06:39:29;;;;;;;13.55;7.35;;;;;;;17.79;66.02;96233.38;4983384;28;20500;-75
2022/06/17 06:41:54;;;;;;;12.65;7.03;;;;;;;18.01;65.73;96245.22;4989415;28;20042;-75
2022/06/17 06:44:20;;;;;;;12.50;7.15;;;;;;;18.08;66.44;96234.94;4990092;28;20649;-76
2022/06/17 06:46:45;;;;;;;11.25;6.72;;;;;;;18.01;66.96;96237.22;4990187;28;20101;-75
2022/06/17 06:49:11;;;;;;;10.27;7.05;;;;;;;17.96;66.64;96234.69;4988790;28;20057;-73
2022/06/17 06:51:36;;;;;;;13.15;7.00;;;;;;;18.05;66.07;96240.88;4990368;28;20042;-75
2022/06/17 06:54:03;;;;;;;10.50;6.63;;;;;;;18.04;65.30;96243.84;4990390;28;20049;-74
2022/06/17 06:56:29;;;;;;;17.23;6.93;;;;;;;18.28;64.63;96254.22;4990030;28;20562;-73
2022/06/17 06:58:54;;;;;;;12.85;6.65;;;;;;;18.18;65.01;96250.69;4989332;28;20043;-74
2022/06/17 07:01:20;;;;;;;11.82;6.20;;;;;;;18.24;64.14;96247.94;4983466;28;20054;-74
2022/06/17 07:03:45;;;;;;;20.73;7.10;;;;;;;18.24;65.55;96258.59;4988461;28;20113;-74
2022/06/17 07:06:12;;;;;;;11.70;6.88;;;;;;;18.13;65.53;96253.47;4987737;28;20210;-74
2022/06/17 07:08:39;;;;;;;22.95;7.53;;;;;;;18.13;65.29;96264.13;4987875;28;20145;-73
2022/06/17 07:11:07;;;;;;;10.15;6.68;;;;;;;18.21;66.38;96264.50;4989071;28;20113;-74
2022/06/17 07:13:32;;;;;;;10.30;6.80;;;;;;;18.31;65.36;96253.63;4982812;28;20043;-73
2022/06/17 07:15:59;;;;;;;9.90;6.38;;;;;;;18.28;65.25;96259.56;4987423;28;20066;-73
2022/06/17 07:18:29;;;;;;;10.32;6.65;;;;;;;18.30;64.90;96262.69;4987794;28;20050;-72
2022/06/17 07:20:57;;;;;;;13.55;7.30;;;;;;;18.20;64.96;96262.94;4985433;28;20121;-73
2022/06/17 07:23:29;;;;;;;18.67;6.88;;;;;;;18.29;65.89;96266.47;4988731;28;20096;-74
2022/06/17 07:25:57;;;;;;;11.88;6.95;;;;;;;18.36;68.46;96258.84;4987064;28;20500;-75
2022/06/17 07:28:23;;;;;;;12.10;6.75;;;;;;;18.52;65.31;96254.75;4987370;28;20093;-74
2022/06/17 07:30:51;;;;;;;13.38;6.55;;;;;;;18.63;65.51;96265.16;4985670;28;20038;-73
2022/06/17 07:33:18;;;;;;;14.55;6.88;;;;;;;18.65;63.44;96263.00;4986498;28;20491;-74
2022/06/17 07:35:45;;;;;;;13.40;6.88;;;;;;;18.80;64.99;96259.16;4988394;28;20046;-74
2022/06/17 07:41:06;;;;;;;14.63;6.77;;;;;;;18.90;63.57;96258.16;4984824;28;20046;-74
2022/06/17 07:43:32;;;;;;;10.02;6.25;;;;;;;19.14;65.78;96258.63;4983453;28;20049;-76
2022/06/17 07:46:00;;;;;;;10.57;5.75;;;;;;;19.11;64.35;96258.47;4981350;28;20038;-74
2022/06/17 07:48:27;;;;;;;12.52;6.00;;;;;;;19.13;61.66;96262.38;4982760;28;20039;-74
2022/06/17 07:50:53;;;;;;;10.07;6.45;;;;;;;19.53;61.24;96259.72;4987193;28;20050;-74
2022/06/17 07:53:19;;;;;;;12.98;6.05;;;;;;;19.45;62.73;96257.84;4980591;28;20412;-75
2022/06/17 07:55:45;;;;;;;11.40;6.30;;;;;;;19.35;61.61;96258.88;4985181;28;20517;-76
2022/06/17 07:58:12;;;;;;;10.25;6.13;;;;;;;19.66;60.33;96262.63;4987281;28;20042;-78
2022/06/17 08:00:44;;;;;;;21.67;6.60;;;;;;;19.72;61.70;96267.50;4993339;28;20405;-75
2022/06/17 08:03:11;;;;;;;8.48;5.30;;;;;;;19.98;61.40;96258.00;4998518;28;20451;-77
2022/06/17 08:05:40;;;;;;;8.23;5.50;;;;;;;20.11;59.67;96256.31;4987120;28;20046;-76
2022/06/17 08:08:08;;;;;;;9.73;6.18;;;;;;;20.30;59.43;96264.00;4982515;28;20038;-75
2022/06/17 08:10:35;;;;;;;12.40;6.30;;;;;;;20.22;59.03;96262.91;4982843;28;20054;-76
2022/06/17 08:13:06;;;;;;;12.70;5.68;;;;;;;20.02;60.43;96269.66;4981227;28;20046;-76
2022/06/17 08:15:34;;;;;;;14.05;6.25;;;;;;;20.11;58.04;96273.09;4980312;28;20070;-79
2022/06/17 08:18:00;;;;;;;14.30;6.32;;;;;;;19.93;58.98;96268.84;4984356;28;20443;-76
2022/06/17 08:20:34;;;;;;;14.60;6.38;;;;;;;20.06;60.08;96281.28;4981059;28;20559;-76
2022/06/17 08:23:02;;;;;;;10.18;6.03;;;;;;;20.36;57.64;96268.13;4977713;28;20038;-77
2022/06/17 08:25:28;;;;;;;8.95;5.95;;;;;;;20.73;58.57;96268.59;4989973;28;20393;-76
2022/06/17 08:27:56;;;;;;;9.38;6.05;;;;;;;20.66;59.56;96270.94;4990365;28;20066;-74
2022/06/17 08:30:28;;;;;;;10.00;5.55;;;;;;;20.67;58.60;96272.56;4989011;28;20042;-78
2022/06/17 08:32:55;;;;;;;10.00;5.70;;;;;;;20.77;55.79;96261.53;4989558;28;20054;-81
2022/06/17 08:35:43;;;;;;;11.60;5.30;;;;;;;21.00;54.29;96269.38;4991470;28;20050;-79
2022/06/17 08:38:16;;;;;;;6.97;4.85;;;;;;;20.89;52.65;96269.69;4989615;28;20038;-79
2022/06/17 08:40:53;;;;;;;10.07;5.00;;;;;;;20.86;54.72;96281.03;4985397;28;20046;-79
2022/06/17 08:43:40;;;;;;;9.52;4.88;;;;;;;20.82;52.28;96274.75;4988476;28;20049;-79
2022/06/17 08:46:24;;;;;;;12.32;4.72;;;;;;;20.93;53.51;96277.88;4991391;28;20105;-76
2022/06/17 08:49:24;;;;;;;9.53;5.03;;;;;;;20.92;52.49;96273.63;4990475;28;20050;-75
2022/06/17 08:52:10;;;;;;;7.13;5.18;;;;;;;21.03;52.49;96284.78;4976981;28;20042;-76
2022/06/17 08:55:08;;;;;;;9.43;4.95;;;;;;;21.28;51.13;96278.59;4991511;28;20485;-76
2022/06/17 08:57:54;;;;;;;7.38;4.90;;;;;;;21.45;50.12;96285.78;4975597;28;20050;-75
2022/06/17 09:00:30;;;;;;;8.95;4.65;;;;;;;21.56;51.01;96285.44;4992729;28;20046;-75
2022/06/17 09:03:14;;;;;;;8.52;4.90;;;;;;;21.40;49.96;96293.19;4991509;28;20038;-76
2022/06/17 09:06:02;;;;;;;6.90;5.00;;;;;;;21.40;49.02;96293.19;4993954;28;20046;-75
2022/06/17 09:08:56;;;;;;;12.65;4.57;;;;;;;21.53;50.79;96292.22;4980544;28;20055;-75
2022/06/17 09:11:39;;;;;;;9.68;4.95;;;;;;;21.65;51.67;96288.09;4980793;28;20042;-76
2022/06/17 09:14:35;;;;;;;5.60;3.95;;;;;;;21.61;49.32;96299.44;4984580;28;20424;-74
2022/06/17 09:17:16;;;;;;;7.28;3.80;;;;;;;21.53;47.87;96300.25;4988986;28;20054;-76
2022/06/17 09:19:47;;;;;;;8.38;4.68;;;;;;;21.69;50.93;96299.75;4985076;28;20046;-76
2022/06/17 09:22:20;;;;;;;7.82;3.92;;;;;;;21.59;45.46;96301.69;4990153;28;20050;-77
2022/06/17 09:24:46;;;;;;;8.63;4.07;;;;;;;21.63;49.07;96291.09;4990914;28;20496;-76
2022/06/17 09:27:23;;;;;;;9.35;4.57;;;;;;;21.86;46.07;96296.97;4990884;28;20049;-73
2022/06/17 09:29:58;;;;;;;7.13;4.00;;;;;;;22.02;47.55;96296.44;4992912;28;20042;-81
2022/06/17 09:32:36;;;;;;;6.30;4.18;;;;;;;21.93;48.40;96294.56;4991260;28;20038;-78
2022/06/17 09:35:04;;;;;;;7.40;4.03;;;;;;;22.01;48.61;96289.50;5010718;28;20064;-78
2022/06/17 09:37:35;;;;;;;9.05;3.90;;;;;;;22.17;48.84;96293.19;4992505;28;20098;-80
2022/06/17 09:40:24;;;;;;;9.05;4.22;;;;;;;22.05;45.79;96301.13;4988295;28;20050;-80
2022/06/17 09:42:58;;;;;;;8.95;4.20;;;;;;;22.07;45.72;96293.56;4977523;28;20061;-78
2022/06/17 09:45:34;;;;;;;7.18;4.10;;;;;;;22.22;45.70;96295.66;4991066;28;20455;-84
2022/06/17 09:48:27;;;;;;;6.78;4.07;;;;;;;22.09;44.62;96294.03;4995284;28;20035;-77
2022/06/17 09:51:00;;;;;;;12.73;4.35;;;;;;;22.13;45.11;96297.63;4989168;28;20401;-78
2022/06/17 09:53:34;;;;;;;4.85;3.60;;;;;;;22.27;46.73;96302.75;4983913;28;20050;-80
2022/06/17 09:56:07;;;;;;;6.40;3.90;;;;;;;22.21;45.67;96294.13;4996013;28;20042;-80
2022/06/17 09:58:43;;;;;;;5.82;3.90;;;;;;;22.19;45.60;96290.97;4997358;28;20066;-77
2022/06/17 10:01:10;;;;;;;6.22;3.90;;;;;;;22.34;44.12;96296.88;4993505;28;20065;-77
2022/06/17 10:03:38;;;;;;;6.95;3.90;;;;;;;22.49;46.38;96299.00;4992158;28;20042;-81
2022/06/17 10:06:35;;;;;;;12.02;4.15;;;;;;;22.55;45.23;96311.09;4992617;28;20467;-76
2022/06/17 10:09:30;;;;;;;5.85;3.90;;;;;;;22.77;43.70;96298.44;4990310;28;20039;-77
2022/06/17 10:12:17;;;;;;;7.72;3.95;;;;;;;22.99;45.20;96306.16;4992891;28;20042;-79
2022/06/17 10:15:08;;;;;;;6.47;3.50;;;;;;;23.08;44.67;96300.69;4992748;28;20100;-82
2022/06/17 10:20:38;;;;;;;6.22;4.22;;;;;;;23.38;45.07;96299.81;4986926;28;20038;-79
2022/06/17 10:23:16;;;;;;;8.45;4.20;;;;;;;23.47;44.93;96309.31;4993216;28;20038;-80
2022/06/17 10:25:56;;;;;;;8.68;4.20;;;;;;;23.95;44.24;96301.66;4994511;28;20054;-79
2022/06/17 10:28:30;;;;;;;12.00;4.70;;;;;;;24.19;43.39;96300.06;4994275;28;20118;-77
2022/06/17 10:31:08;;;;;;;;;;;;;;;24.47;42.13;96302.06;4991874;28;20397;-78
2022/06/17 10:33:36;;;;;;;6.40;4.00;;;;;;;24.21;42.25;96300.53;4987753;28;20288;-77
2022/06/17 10:36:04;;;;;;;8.75;4.00;;;;;;;24.63;41.82;96302.16;4991123;28;20070;-79
2022/06/17 10:38:37;;;;;;;5.47;3.70;;;;;;;24.81;41.04;96302.63;4997166;28;20121;-80
2022/06/17 10:41:03;;;;;;;6.60;3.90;;;;;;;24.48;41.43;96296.34;4993560;28;20108;-81
2022/06/17 10:43:43;;;;;;;6.22;4.05;;;;;;;25.29;41.36;96283.91;4990083;28;20070;-81
2022/06/17 10:46:32;;;;;;;7.35;3.50;;;;;;;25.36;38.78;96287.59;4996426;28;20046;-81
2022/06/17 10:49:19;;;;;;;8.73;3.70;;;;;;;25.20;38.34;96286.78;4996667;28;20049;-81
2022/06/17 10:51:47;;;;;;;8.05;3.70;;;;;;;25.79;38.26;96274.38;4996975;28;20053;-81
2022/06/17 10:54:29;;;;;;;6.75;3.83;;;;;;;26.48;38.25;96276.69;4989627;28;20042;-79
2022/06/17 10:57:04;;;;;;;9.27;3.90;;;;;;;26.32;35.99;96281.34;4997446;28;20050;-79
2022/06/17 10:59:41;;;;;;;10.80;4.50;;;;;;;26.06;37.49;96278.09;4996209;28;20073;-79
2022/06/17 11:02:25;;;;;;;8.63;4.43;;;;;;;26.69;35.80;96279.03;5000775;28;20153;-79
2022/06/17 11:04:50;;;;;;;6.53;4.00;;;;;;;26.50;35.00;96273.63;4984123;28;20121;-79
2022/06/17 11:07:20;;;;;;;7.55;4.20;;;;;;;26.73;34.83;96271.03;4995688;28;20043;-80
2022/06/17 11:09:51;;;;;;;6.45;3.80;;;;;;;26.55;35.47;96281.44;4995025;28;20042;-79
2022/06/17 11:12:52;;;;;;;6.07;3.70;;;;;;;26.26;34.16;96272.72;4992084;28;20416;-79
2022/06/17 11:15:29;;;;;;;5.97;3.60;;;;;;;26.49;34.91;96274.75;4989078;28;20492;-78
2022/06/17 11:18:01;;;;;;;6.32;3.83;;;;;;;27.05;35.11;96268.94;4995326;28;20054;-77
2022/06/17 11:20:32;;;;;;;5.10;3.67;;;;;;;27.85;32.68;96273.75;4990870;28;20781;-77
2022/06/17 11:23:06;;;;;;;6.30;3.75;;;;;;;28.32;33.37;96274.44;4998117;28;20408;-77
2022/06/17 11:25:34;;;;;;;7.60;4.13;;;;;;;28.34;33.22;96277.56;4986877;28;20108;-78
2022/06/17 11:28:12;;;;;;;5.28;3.50;;;;;;;28.52;32.63;96283.97;4991487;28;20399;-78
2022/06/17 11:30:59;;;;;;;9.10;4.05;;;;;;;27.80;32.44;96277.56;4989953;28;20057;-77
2022/06/17 11:33:32;;;;;;;6.38;3.63;;;;;;;27.76;33.75;96270.53;4991864;28;20049;-78
2022/06/17 11:36:06;;;;;;;6.20;3.75;;;;;;;28.09;34.24;96278.00;4991553;28;20097;-78
2022/06/17 11:38:34;;;;;;;5.90;3.20;;;;;;;28.56;30.77;96272.41;4990370;28;20042;-78
2022/06/17 11:41:00;;;;;;;5.88;3.30;;;;;;;28.65;31.75;96259.41;4991692;28;20081;-79
2022/06/17 11:43:42;;;;;;;6.95;3.50;;;;;;;28.85;29.51;96258.09;4992804;28;20511;-78
2022/06/17 11:46:21;;;;;;;4.63;3.20;;;;;;;28.74;30.36;96259.13;4992047;28;20403;-76
2022/06/17 11:48:52;;;;;;;6.90;3.80;;;;;;;29.39;30.68;96252.44;4989821;28;20042;-78
2022/06/17 11:51:37;;;;;;;6.50;3.60;;;;;;;27.99;31.28;96251.56;4992189;28;20045;-78
2022/06/17 11:54:16;;;;;;;5.10;3.58;;;;;;;28.18;31.74;96243.31;4990513;28;20039;-77
2022/06/17 11:56:43;;;;;;;6.93;3.40;;;;;;;28.51;30.83;96255.34;4988614;28;20053;-78
2022/06/17 11:59:16;;;;;;;5.70;3.30;;;;;;;29.61;29.89;96242.56;4978753;28;20058;-76
2022/06/17 12:01:48;;;;;;;4.32;3.10;;;;;;;29.59;27.56;96236.72;4993004;28;20042;-77